sensor_id;sensor_type;location;lat;lon;timestamp;temperature;humidity
4934;DHT22;2482;49.154;8.254;2023-02-26T00:01:39;-0.30;99.90
4934;DHT22;2482;49.154;8.254;2023-02-26T00:04:06;-0.20;99.90
4934;DHT22;2482;49.154;8.254;2023-02-26T00:06:38;-0.20;99.90
4934;DHT22;2482;49.154;8.254;2023-02-26T00:09:21;-0.30;99.90
4934;DHT22;2482;49.154;8.254;2023-02-26T00:11:49;-0.40;99.90
4934;DHT22;2482;49.154;8.254;2023-02-26T00:14:17;-0.50;99.90
4934;DHT22;2482;49.154;8.254;2023-02-26T00:16:49;-0.40;99.90
4934;DHT22;2482;49.154;8.254;2023-02-26T00:19:38;-0.50;99.90
4934;DHT22;2482;49.154;8.254;2023-02-26T00:22:05;-0.60;99.90
4934;DHT22;2482;49.154;8.254;2023-02-26T00:24:32;-0.80;99.90
4934;DHT22;2482;49.154;8.254;2023-02-26T00:26:59;-0.60;99.90
4934;DHT22;2482;49.154;8.254;2023-02-26T00:29:26;-0.50;99.90
4934;DHT22;2482;49.154;8.254;2023-02-26T00:31:54;-0.50;99.90
4934;DHT22;2482;49.154;8.254;2023-02-26T00:34:21;-0.50;99.90
4934;DHT22;2482;49.154;8.254;2023-02-26T00:37:25;-0.50;99.90
4934;DHT22;2482;49.154;8.254;2023-02-26T00:40:01;-0.50;99.90
4934;DHT22;2482;49.154;8.254;2023-02-26T00:42:49;-0.60;99.90
4934;DHT22;2482;49.154;8.254;2023-02-26T00:45:17;-0.60;99.90
4934;DHT22;2482;49.154;8.254;2023-02-26T00:50:35;-0.60;99.90
4934;DHT22;2482;49.154;8.254;2023-02-26T00:53:12;-0.60;99.90
4934;DHT22;2482;49.154;8.254;2023-02-26T00:55:45;-0.60;99.90
4934;DHT22;2482;49.154;8.254;2023-02-26T00:58:12;-0.70;99.90
4934;DHT22;2482;49.154;8.254;2023-02-26T01:00:39;-0.70;99.90
4934;DHT22;2482;49.154;8.254;2023-02-26T01:03:06;-0.70;99.90
4934;DHT22;2482;49.154;8.254;2023-02-26T01:05:33;-0.80;99.90
4934;DHT22;2482;49.154;8.254;2023-02-26T01:08:04;-0.80;99.90
4934;DHT22;2482;49.154;8.254;2023-02-26T01:10:40;-0.80;99.90
4934;DHT22;2482;49.154;8.254;2023-02-26T01:13:08;-0.90;99.90
4934;DHT22;2482;49.154;8.254;2023-02-26T01:15:36;-0.90;99.90
4934;DHT22;2482;49.154;8.254;2023-02-26T01:18:13;-1.10;99.90
4934;DHT22;2482;49.154;8.254;2023-02-26T01:20:47;-0.90;99.90
4934;DHT22;2482;49.154;8.254;2023-02-26T01:23:24;-0.90;99.90
4934;DHT22;2482;49.154;8.254;2023-02-26T01:25:57;-0.90;99.90
4934;DHT22;2482;49.154;8.254;2023-02-26T01:28:25;-0.90;99.90
4934;DHT22;2482;49.154;8.254;2023-02-26T01:30:56;-0.90;99.90
4934;DHT22;2482;49.154;8.254;2023-02-26T01:36:20;-1.00;99.90
4934;DHT22;2482;49.154;8.254;2023-02-26T01:39:05;-0.90;99.90
4934;DHT22;2482;49.154;8.254;2023-02-26T01:47:05;-0.90;99.90
4934;DHT22;2482;49.154;8.254;2023-02-26T01:49:39;-0.90;99.90
4934;DHT22;2482;49.154;8.254;2023-02-26T01:55:21;-0.90;99.90
4934;DHT22;2482;49.154;8.254;2023-02-26T01:57:52;-0.90;99.90
4934;DHT22;2482;49.154;8.254;2023-02-26T02:00:22;-0.80;99.90
4934;DHT22;2482;49.154;8.254;2023-02-26T02:02:49;-0.90;99.90
4934;DHT22;2482;49.154;8.254;2023-02-26T02:05:42;-1.00;99.90
4934;DHT22;2482;49.154;8.254;2023-02-26T02:08:13;-1.00;99.90
4934;DHT22;2482;49.154;8.254;2023-02-26T02:10:43;-1.20;99.90
4934;DHT22;2482;49.154;8.254;2023-02-26T02:25:19;-0.80;99.90
4934;DHT22;2482;49.154;8.254;2023-02-26T02:33:47;-0.70;99.90
4934;DHT22;2482;49.154;8.254;2023-02-26T02:37:22;-0.70;99.90
4934;DHT22;2482;49.154;8.254;2023-02-26T02:39:42;-0.80;99.90
4934;DHT22;2482;49.154;8.254;2023-02-26T02:42:31;-0.80;99.90
4934;DHT22;2482;49.154;8.254;2023-02-26T02:45:10;-0.80;99.90
4934;DHT22;2482;49.154;8.254;2023-02-26T02:47:47;-0.70;99.90
4934;DHT22;2482;49.154;8.254;2023-02-26T02:50:30;-0.70;99.90
4934;DHT22;2482;49.154;8.254;2023-02-26T02:53:08;-0.70;99.90
4934;DHT22;2482;49.154;8.254;2023-02-26T02:55:50;-0.70;99.90
4934;DHT22;2482;49.154;8.254;2023-02-26T02:58:29;-0.70;99.90
4934;DHT22;2482;49.154;8.254;2023-02-26T03:01:01;-0.70;99.90
4934;DHT22;2482;49.154;8.254;2023-02-26T03:06:20;-0.80;99.90
4934;DHT22;2482;49.154;8.254;2023-02-26T03:08:47;-0.80;99.90
4934;DHT22;2482;49.154;8.254;2023-02-26T03:11:15;-0.70;99.90
4934;DHT22;2482;49.154;8.254;2023-02-26T03:13:42;-0.70;99.90
4934;DHT22;2482;49.154;8.254;2023-02-26T03:22:14;-0.80;99.90
4934;DHT22;2482;49.154;8.254;2023-02-26T03:24:55;-0.80;99.90
4934;DHT22;2482;49.154;8.254;2023-02-26T03:28:00;-0.80;99.90
4934;DHT22;2482;49.154;8.254;2023-02-26T03:30:54;-0.90;99.90
4934;DHT22;2482;49.154;8.254;2023-02-26T03:33:49;-0.80;99.90
4934;DHT22;2482;49.154;8.254;2023-02-26T03:36:29;-0.70;99.90
4934;DHT22;2482;49.154;8.254;2023-02-26T03:39:42;-0.80;99.90
4934;DHT22;2482;49.154;8.254;2023-02-26T03:42:27;-0.80;99.90
4934;DHT22;2482;49.154;8.254;2023-02-26T03:45:06;-0.80;99.90
4934;DHT22;2482;49.154;8.254;2023-02-26T03:47:39;-1.00;99.90
4934;DHT22;2482;49.154;8.254;2023-02-26T03:50:34;-0.90;99.90
4934;DHT22;2482;49.154;8.254;2023-02-26T03:53:06;-0.90;99.90
4934;DHT22;2482;49.154;8.254;2023-02-26T03:55:45;-0.90;99.90
4934;DHT22;2482;49.154;8.254;2023-02-26T03:58:16;-0.80;99.90
4934;DHT22;2482;49.154;8.254;2023-02-26T04:00:46;-0.90;99.90
4934;DHT22;2482;49.154;8.254;2023-02-26T04:04:01;-1.00;99.90
4934;DHT22;2482;49.154;8.254;2023-02-26T04:06:33;-1.00;99.90
4934;DHT22;2482;49.154;8.254;2023-02-26T04:09:00;-0.90;99.90
4934;DHT22;2482;49.154;8.254;2023-02-26T04:11:29;-1.00;99.90
4934;DHT22;2482;49.154;8.254;2023-02-26T04:13:57;-1.10;99.90
4934;DHT22;2482;49.154;8.254;2023-02-26T04:16:24;-1.00;99.90
4934;DHT22;2482;49.154;8.254;2023-02-26T04:18:51;-0.90;99.90
4934;DHT22;2482;49.154;8.254;2023-02-26T04:21:20;-1.00;99.90
4934;DHT22;2482;49.154;8.254;2023-02-26T04:23:48;-1.10;99.90
4934;DHT22;2482;49.154;8.254;2023-02-26T04:26:15;-1.00;99.90
4934;DHT22;2482;49.154;8.254;2023-02-26T04:28:42;-1.10;99.90
4934;DHT22;2482;49.154;8.254;2023-02-26T04:31:09;-1.10;99.90
4934;DHT22;2482;49.154;8.254;2023-02-26T04:33:37;-1.10;99.90
4934;DHT22;2482;49.154;8.254;2023-02-26T04:36:04;-1.10;99.90
4934;DHT22;2482;49.154;8.254;2023-02-26T04:38:32;-1.10;99.90
4934;DHT22;2482;49.154;8.254;2023-02-26T04:40:59;-1.10;99.90
4934;DHT22;2482;49.154;8.254;2023-02-26T04:43:26;-1.10;99.90
4934;DHT22;2482;49.154;8.254;2023-02-26T04:45:54;-1.00;99.90
4934;DHT22;2482;49.154;8.254;2023-02-26T04:48:21;-1.00;99.90
4934;DHT22;2482;49.154;8.254;2023-02-26T04:50:47;-1.00;99.90
4934;DHT22;2482;49.154;8.254;2023-02-26T04:53:14;-0.90;99.90
4934;DHT22;2482;49.154;8.254;2023-02-26T04:55:41;-0.90;99.90
4934;DHT22;2482;49.154;8.254;2023-02-26T04:58:08;-0.90;99.90
4934;DHT22;2482;49.154;8.254;2023-02-26T05:00:36;-0.90;99.90
4934;DHT22;2482;49.154;8.254;2023-02-26T05:03:03;-0.90;99.90
4934;DHT22;2482;49.154;8.254;2023-02-26T05:05:31;-0.90;99.90
4934;DHT22;2482;49.154;8.254;2023-02-26T05:08:03;-0.80;99.90
4934;DHT22;2482;49.154;8.254;2023-02-26T05:10:31;-0.90;99.90
4934;DHT22;2482;49.154;8.254;2023-02-26T05:12:58;-0.90;99.90
4934;DHT22;2482;49.154;8.254;2023-02-26T05:15:27;-1.00;99.90
4934;DHT22;2482;49.154;8.254;2023-02-26T05:17:54;-1.00;99.90
4934;DHT22;2482;49.154;8.254;2023-02-26T05:20:21;-1.10;99.90
4934;DHT22;2482;49.154;8.254;2023-02-26T05:22:48;-1.10;99.90
4934;DHT22;2482;49.154;8.254;2023-02-26T05:25:15;-1.20;99.90
4934;DHT22;2482;49.154;8.254;2023-02-26T05:27:43;-1.20;99.90
4934;DHT22;2482;49.154;8.254;2023-02-26T05:30:12;-1.30;99.90
4934;DHT22;2482;49.154;8.254;2023-02-26T05:32:41;-1.30;99.90
4934;DHT22;2482;49.154;8.254;2023-02-26T05:35:10;-1.40;99.90
4934;DHT22;2482;49.154;8.254;2023-02-26T05:37:38;-1.30;99.90
4934;DHT22;2482;49.154;8.254;2023-02-26T05:40:07;-1.40;99.90
4934;DHT22;2482;49.154;8.254;2023-02-26T05:42:38;-1.50;99.90
4934;DHT22;2482;49.154;8.254;2023-02-26T05:45:06;-1.50;99.90
4934;DHT22;2482;49.154;8.254;2023-02-26T05:47:34;-1.30;99.90
4934;DHT22;2482;49.154;8.254;2023-02-26T05:50:03;-1.40;99.90
4934;DHT22;2482;49.154;8.254;2023-02-26T05:52:31;-1.30;99.90
4934;DHT22;2482;49.154;8.254;2023-02-26T05:54:59;-1.30;99.90
4934;DHT22;2482;49.154;8.254;2023-02-26T05:57:26;-1.30;99.90
4934;DHT22;2482;49.154;8.254;2023-02-26T05:59:53;-1.40;99.90
4934;DHT22;2482;49.154;8.254;2023-02-26T06:02:21;-1.40;99.90
4934;DHT22;2482;49.154;8.254;2023-02-26T06:04:47;-1.50;99.90
4934;DHT22;2482;49.154;8.254;2023-02-26T06:07:16;-1.30;99.90
4934;DHT22;2482;49.154;8.254;2023-02-26T06:09:43;-1.50;99.90
4934;DHT22;2482;49.154;8.254;2023-02-26T06:12:11;-1.40;99.90
4934;DHT22;2482;49.154;8.254;2023-02-26T06:14:38;-1.40;99.90
4934;DHT22;2482;49.154;8.254;2023-02-26T06:17:05;-1.50;99.90
4934;DHT22;2482;49.154;8.254;2023-02-26T06:19:33;-1.50;99.90
4934;DHT22;2482;49.154;8.254;2023-02-26T06:22:01;-1.50;99.90
4934;DHT22;2482;49.154;8.254;2023-02-26T06:24:28;-1.40;99.90
4934;DHT22;2482;49.154;8.254;2023-02-26T06:26:57;-1.50;99.90
4934;DHT22;2482;49.154;8.254;2023-02-26T06:29:24;-1.50;99.90
4934;DHT22;2482;49.154;8.254;2023-02-26T06:31:51;-1.50;99.90
4934;DHT22;2482;49.154;8.254;2023-02-26T06:34:18;-1.60;99.90
4934;DHT22;2482;49.154;8.254;2023-02-26T06:36:45;-1.60;99.90
4934;DHT22;2482;49.154;8.254;2023-02-26T06:39:12;-1.50;99.90
4934;DHT22;2482;49.154;8.254;2023-02-26T06:41:39;-1.70;99.90
4934;DHT22;2482;49.154;8.254;2023-02-26T06:44:06;-1.60;99.90
4934;DHT22;2482;49.154;8.254;2023-02-26T06:46:34;-1.50;99.90
4934;DHT22;2482;49.154;8.254;2023-02-26T06:49:02;-1.50;99.90
4934;DHT22;2482;49.154;8.254;2023-02-26T06:51:29;-1.50;99.90
4934;DHT22;2482;49.154;8.254;2023-02-26T06:53:56;-1.50;99.90
4934;DHT22;2482;49.154;8.254;2023-02-26T06:56:24;-1.40;99.90
4934;DHT22;2482;49.154;8.254;2023-02-26T06:58:52;-1.50;99.90
4934;DHT22;2482;49.154;8.254;2023-02-26T07:01:21;-1.50;99.90
4934;DHT22;2482;49.154;8.254;2023-02-26T07:03:48;-1.50;99.90
4934;DHT22;2482;49.154;8.254;2023-02-26T07:06:15;-1.50;99.90
4934;DHT22;2482;49.154;8.254;2023-02-26T07:08:53;-1.40;99.90
4934;DHT22;2482;49.154;8.254;2023-02-26T07:11:22;-1.30;99.90
4934;DHT22;2482;49.154;8.254;2023-02-26T07:13:51;-1.20;99.90
4934;DHT22;2482;49.154;8.254;2023-02-26T07:16:18;-1.20;99.90
4934;DHT22;2482;49.154;8.254;2023-02-26T07:18:45;-1.10;99.90
4934;DHT22;2482;49.154;8.254;2023-02-26T07:21:12;-0.90;99.90
4934;DHT22;2482;49.154;8.254;2023-02-26T07:23:39;-0.90;99.90
4934;DHT22;2482;49.154;8.254;2023-02-26T07:26:06;-0.80;99.90
4934;DHT22;2482;49.154;8.254;2023-02-26T07:28:34;-0.80;99.90
4934;DHT22;2482;49.154;8.254;2023-02-26T07:31:01;-0.70;99.90
4934;DHT22;2482;49.154;8.254;2023-02-26T07:33:30;-0.70;99.90
4934;DHT22;2482;49.154;8.254;2023-02-26T07:35:57;-0.60;99.90
4934;DHT22;2482;49.154;8.254;2023-02-26T07:38:24;-0.60;99.90
4934;DHT22;2482;49.154;8.254;2023-02-26T07:40:54;-0.60;99.90
4934;DHT22;2482;49.154;8.254;2023-02-26T07:43:23;-0.60;99.90
4934;DHT22;2482;49.154;8.254;2023-02-26T07:45:52;-0.50;99.90
4934;DHT22;2482;49.154;8.254;2023-02-26T07:48:21;-0.40;99.90
4934;DHT22;2482;49.154;8.254;2023-02-26T07:50:51;-0.50;99.90
4934;DHT22;2482;49.154;8.254;2023-02-26T07:53:19;-0.40;99.90
4934;DHT22;2482;49.154;8.254;2023-02-26T07:55:46;-0.40;99.90
4934;DHT22;2482;49.154;8.254;2023-02-26T07:58:13;-0.30;99.90
4934;DHT22;2482;49.154;8.254;2023-02-26T08:00:40;-0.30;99.90
4934;DHT22;2482;49.154;8.254;2023-02-26T08:03:07;-0.20;99.90
4934;DHT22;2482;49.154;8.254;2023-02-26T08:05:34;-0.20;99.90
4934;DHT22;2482;49.154;8.254;2023-02-26T08:08:01;-0.10;99.90
4934;DHT22;2482;49.154;8.254;2023-02-26T08:10:30;0.00;99.90
4934;DHT22;2482;49.154;8.254;2023-02-26T08:12:57;-0.10;99.90
4934;DHT22;2482;49.154;8.254;2023-02-26T08:15:24;0.00;99.90
4934;DHT22;2482;49.154;8.254;2023-02-26T08:17:52;0.10;99.90
4934;DHT22;2482;49.154;8.254;2023-02-26T08:20:19;0.00;99.90
4934;DHT22;2482;49.154;8.254;2023-02-26T08:22:46;0.00;99.90
4934;DHT22;2482;49.154;8.254;2023-02-26T08:25:14;0.10;99.90
4934;DHT22;2482;49.154;8.254;2023-02-26T08:27:42;0.10;99.90
4934;DHT22;2482;49.154;8.254;2023-02-26T08:30:09;0.20;99.90
4934;DHT22;2482;49.154;8.254;2023-02-26T08:32:37;0.20;99.90
4934;DHT22;2482;49.154;8.254;2023-02-26T08:35:05;0.30;99.90
4934;DHT22;2482;49.154;8.254;2023-02-26T08:37:32;0.30;99.90
4934;DHT22;2482;49.154;8.254;2023-02-26T08:39:59;0.40;99.90
4934;DHT22;2482;49.154;8.254;2023-02-26T08:42:28;0.30;99.90
4934;DHT22;2482;49.154;8.254;2023-02-26T08:44:55;0.30;99.90
4934;DHT22;2482;49.154;8.254;2023-02-26T08:47:22;0.30;99.90
4934;DHT22;2482;49.154;8.254;2023-02-26T08:49:54;0.30;99.90
4934;DHT22;2482;49.154;8.254;2023-02-26T08:52:21;0.40;99.90
4934;DHT22;2482;49.154;8.254;2023-02-26T08:54:49;0.50;99.90
4934;DHT22;2482;49.154;8.254;2023-02-26T08:57:17;0.50;99.90
4934;DHT22;2482;49.154;8.254;2023-02-26T08:59:44;0.50;99.90
4934;DHT22;2482;49.154;8.254;2023-02-26T09:02:12;0.40;99.90
4934;DHT22;2482;49.154;8.254;2023-02-26T09:04:39;0.40;99.90
4934;DHT22;2482;49.154;8.254;2023-02-26T09:07:06;0.60;99.90
4934;DHT22;2482;49.154;8.254;2023-02-26T09:09:33;0.50;99.90
4934;DHT22;2482;49.154;8.254;2023-02-26T09:12:00;0.50;99.90
4934;DHT22;2482;49.154;8.254;2023-02-26T09:14:27;0.60;99.90
4934;DHT22;2482;49.154;8.254;2023-02-26T09:16:54;0.70;99.90
4934;DHT22;2482;49.154;8.254;2023-02-26T09:19:21;0.90;99.90
4934;DHT22;2482;49.154;8.254;2023-02-26T09:21:48;0.80;99.90
4934;DHT22;2482;49.154;8.254;2023-02-26T09:24:15;0.90;99.90
4934;DHT22;2482;49.154;8.254;2023-02-26T09:26:42;0.80;99.90
4934;DHT22;2482;49.154;8.254;2023-02-26T09:29:09;0.90;99.90
4934;DHT22;2482;49.154;8.254;2023-02-26T09:31:37;1.00;99.90
4934;DHT22;2482;49.154;8.254;2023-02-26T09:34:04;1.20;99.90
4934;DHT22;2482;49.154;8.254;2023-02-26T09:36:31;1.50;99.90
4934;DHT22;2482;49.154;8.254;2023-02-26T09:38:58;1.40;99.90
4934;DHT22;2482;49.154;8.254;2023-02-26T09:41:37;1.60;99.90
4934;DHT22;2482;49.154;8.254;2023-02-26T09:44:22;1.90;99.90
4934;DHT22;2482;49.154;8.254;2023-02-26T09:46:57;2.30;99.90
4934;DHT22;2482;49.154;8.254;2023-02-26T09:50:10;2.40;99.90
4934;DHT22;2482;49.154;8.254;2023-02-26T09:53:02;2.10;99.90
4934;DHT22;2482;49.154;8.254;2023-02-26T09:55:45;1.90;99.90
4934;DHT22;2482;49.154;8.254;2023-02-26T10:12:40;1.70;99.90
4934;DHT22;2482;49.154;8.254;2023-02-26T10:15:21;1.60;99.90
4934;DHT22;2482;49.154;8.254;2023-02-26T10:18:05;1.40;99.90
4934;DHT22;2482;49.154;8.254;2023-02-26T10:20:42;1.50;99.90
4934;DHT22;2482;49.154;8.254;2023-02-26T10:23:41;1.50;99.90
4934;DHT22;2482;49.154;8.254;2023-02-26T10:32:06;1.70;99.90
4934;DHT22;2482;49.154;8.254;2023-02-26T10:40:16;1.90;99.90
4934;DHT22;2482;49.154;8.254;2023-02-26T10:46:21;1.80;99.90
4934;DHT22;2482;49.154;8.254;2023-02-26T10:52:24;1.90;99.90
4934;DHT22;2482;49.154;8.254;2023-02-26T10:55:02;1.70;99.90
4934;DHT22;2482;49.154;8.254;2023-02-26T10:57:33;1.70;99.90
4934;DHT22;2482;49.154;8.254;2023-02-26T11:00:04;1.60;99.90
4934;DHT22;2482;49.154;8.254;2023-02-26T11:02:40;1.60;99.90
4934;DHT22;2482;49.154;8.254;2023-02-26T11:05:22;1.80;99.90
4934;DHT22;2482;49.154;8.254;2023-02-26T11:07:57;1.70;99.90
4934;DHT22;2482;49.154;8.254;2023-02-26T11:10:39;1.60;99.90
4934;DHT22;2482;49.154;8.254;2023-02-26T11:13:08;1.70;99.90
4934;DHT22;2482;49.154;8.254;2023-02-26T11:15:35;1.80;99.90
4934;DHT22;2482;49.154;8.254;2023-02-26T11:18:02;1.80;99.90
4934;DHT22;2482;49.154;8.254;2023-02-26T11:20:40;1.90;99.90
4934;DHT22;2482;49.154;8.254;2023-02-26T11:23:29;1.80;99.90
4934;DHT22;2482;49.154;8.254;2023-02-26T11:26:06;1.90;99.90
4934;DHT22;2482;49.154;8.254;2023-02-26T11:28:37;2.00;99.90
4934;DHT22;2482;49.154;8.254;2023-02-26T11:31:11;2.20;99.90
4934;DHT22;2482;49.154;8.254;2023-02-26T11:33:47;2.00;99.90
4934;DHT22;2482;49.154;8.254;2023-02-26T11:36:33;2.00;99.90
4934;DHT22;2482;49.154;8.254;2023-02-26T11:39:16;2.00;99.90
4934;DHT22;2482;49.154;8.254;2023-02-26T11:41:46;2.20;99.90
4934;DHT22;2482;49.154;8.254;2023-02-26T11:44:33;2.20;99.90
4934;DHT22;2482;49.154;8.254;2023-02-26T11:47:06;2.10;99.90
4934;DHT22;2482;49.154;8.254;2023-02-26T11:49:44;2.10;99.90
4934;DHT22;2482;49.154;8.254;2023-02-26T11:52:30;2.10;99.90
4934;DHT22;2482;49.154;8.254;2023-02-26T11:55:16;2.20;99.90
4934;DHT22;2482;49.154;8.254;2023-02-26T11:57:47;2.20;99.90
4934;DHT22;2482;49.154;8.254;2023-02-26T12:00:34;2.00;99.90
4934;DHT22;2482;49.154;8.254;2023-02-26T12:03:21;2.10;99.90
4934;DHT22;2482;49.154;8.254;2023-02-26T12:05:50;2.10;99.90
4934;DHT22;2482;49.154;8.254;2023-02-26T12:14:25;2.20;99.90
4934;DHT22;2482;49.154;8.254;2023-02-26T12:26:15;2.30;99.90
4934;DHT22;2482;49.154;8.254;2023-02-26T12:38:35;2.40;99.90
4934;DHT22;2482;49.154;8.254;2023-02-26T12:43:55;2.50;99.90
4934;DHT22;2482;49.154;8.254;2023-02-26T12:52:11;2.50;99.90
4934;DHT22;2482;49.154;8.254;2023-02-26T12:55:08;2.60;99.90
4934;DHT22;2482;49.154;8.254;2023-02-26T12:57:49;2.60;99.90
4934;DHT22;2482;49.154;8.254;2023-02-26T13:11:45;2.90;99.90
4934;DHT22;2482;49.154;8.254;2023-02-26T13:20:18;3.00;99.90
4934;DHT22;2482;49.154;8.254;2023-02-26T13:23:00;3.00;99.90
4934;DHT22;2482;49.154;8.254;2023-02-26T13:25:53;3.10;99.90
4934;DHT22;2482;49.154;8.254;2023-02-26T13:31:27;3.20;99.90
4934;DHT22;2482;49.154;8.254;2023-02-26T13:34:01;3.40;99.90
4934;DHT22;2482;49.154;8.254;2023-02-26T13:36:32;3.10;99.90
4934;DHT22;2482;49.154;8.254;2023-02-26T13:42:24;3.20;99.90
4934;DHT22;2482;49.154;8.254;2023-02-26T13:48:07;3.30;99.90
4934;DHT22;2482;49.154;8.254;2023-02-26T13:50:48;3.30;99.90
4934;DHT22;2482;49.154;8.254;2023-02-26T13:56:44;3.10;99.90
4934;DHT22;2482;49.154;8.254;2023-02-26T13:59:38;3.20;99.90
4934;DHT22;2482;49.154;8.254;2023-02-26T14:04:59;3.30;99.90
4934;DHT22;2482;49.154;8.254;2023-02-26T14:13:19;3.20;99.90
4934;DHT22;2482;49.154;8.254;2023-02-26T14:18:35;3.40;99.90
4934;DHT22;2482;49.154;8.254;2023-02-26T14:23:59;3.20;99.90
4934;DHT22;2482;49.154;8.254;2023-02-26T14:26:33;3.30;99.90
4934;DHT22;2482;49.154;8.254;2023-02-26T14:34:29;3.50;99.90
4934;DHT22;2482;49.154;8.254;2023-02-26T14:37:01;3.50;99.90
4934;DHT22;2482;49.154;8.254;2023-02-26T14:39:39;3.40;99.90
4934;DHT22;2482;49.154;8.254;2023-02-26T14:42:17;3.50;99.90
4934;DHT22;2482;49.154;8.254;2023-02-26T14:44:53;3.40;99.90
4934;DHT22;2482;49.154;8.254;2023-02-26T14:47:28;3.50;99.90
4934;DHT22;2482;49.154;8.254;2023-02-26T14:49:55;3.30;99.90
4934;DHT22;2482;49.154;8.254;2023-02-26T15:01:59;3.40;99.90
4934;DHT22;2482;49.154;8.254;2023-02-26T15:13:36;3.40;99.90
4934;DHT22;2482;49.154;8.254;2023-02-26T15:19:21;3.20;99.90
4934;DHT22;2482;49.154;8.254;2023-02-26T15:24:50;3.20;99.90
4934;DHT22;2482;49.154;8.254;2023-02-26T15:27:18;3.20;99.90
4934;DHT22;2482;49.154;8.254;2023-02-26T15:29:48;3.10;99.90
4934;DHT22;2482;49.154;8.254;2023-02-26T15:32:35;3.20;99.90
4934;DHT22;2482;49.154;8.254;2023-02-26T15:35:13;3.20;99.90
4934;DHT22;2482;49.154;8.254;2023-02-26T15:37:41;3.30;99.90
4934;DHT22;2482;49.154;8.254;2023-02-26T15:40:10;3.20;99.90
4934;DHT22;2482;49.154;8.254;2023-02-26T15:42:43;3.20;99.90
4934;DHT22;2482;49.154;8.254;2023-02-26T15:45:40;3.10;99.90
4934;DHT22;2482;49.154;8.254;2023-02-26T15:48:18;3.00;99.90
4934;DHT22;2482;49.154;8.254;2023-02-26T15:50:53;3.10;99.90
4934;DHT22;2482;49.154;8.254;2023-02-26T15:56:03;3.00;99.90
4934;DHT22;2482;49.154;8.254;2023-02-26T15:58:40;3.00;99.90
4934;DHT22;2482;49.154;8.254;2023-02-26T16:01:16;3.00;99.90
4934;DHT22;2482;49.154;8.254;2023-02-26T16:03:44;2.80;99.90
4934;DHT22;2482;49.154;8.254;2023-02-26T16:06:16;2.80;99.90
4934;DHT22;2482;49.154;8.254;2023-02-26T16:08:45;2.80;99.90
4934;DHT22;2482;49.154;8.254;2023-02-26T16:11:12;2.80;99.90
4934;DHT22;2482;49.154;8.254;2023-02-26T16:13:41;2.80;99.90
4934;DHT22;2482;49.154;8.254;2023-02-26T16:16:21;2.80;99.90
4934;DHT22;2482;49.154;8.254;2023-02-26T16:18:53;2.80;99.90
4934;DHT22;2482;49.154;8.254;2023-02-26T16:21:41;2.70;99.90
4934;DHT22;2482;49.154;8.254;2023-02-26T16:24:16;2.60;99.90
4934;DHT22;2482;49.154;8.254;2023-02-26T16:26:50;2.60;99.90
4934;DHT22;2482;49.154;8.254;2023-02-26T16:29:23;2.70;99.90
4934;DHT22;2482;49.154;8.254;2023-02-26T16:31:57;2.60;99.90
4934;DHT22;2482;49.154;8.254;2023-02-26T16:45:45;2.60;99.90
4934;DHT22;2482;49.154;8.254;2023-02-26T16:48:20;2.60;99.90
4934;DHT22;2482;49.154;8.254;2023-02-26T16:51:01;2.50;99.90
4934;DHT22;2482;49.154;8.254;2023-02-26T16:53:39;2.50;99.90
4934;DHT22;2482;49.154;8.254;2023-02-26T16:56:14;2.50;99.90
4934;DHT22;2482;49.154;8.254;2023-02-26T16:58:50;2.60;99.90
4934;DHT22;2482;49.154;8.254;2023-02-26T17:01:22;2.50;99.90
4934;DHT22;2482;49.154;8.254;2023-02-26T17:03:55;2.50;99.90
4934;DHT22;2482;49.154;8.254;2023-02-26T17:06:27;2.40;99.90
4934;DHT22;2482;49.154;8.254;2023-02-26T17:08:59;2.50;99.90
4934;DHT22;2482;49.154;8.254;2023-02-26T17:11:33;2.40;99.90
4934;DHT22;2482;49.154;8.254;2023-02-26T17:16:51;2.30;99.90
4934;DHT22;2482;49.154;8.254;2023-02-26T17:19:19;2.40;99.90
4934;DHT22;2482;49.154;8.254;2023-02-26T17:21:49;2.30;99.90
4934;DHT22;2482;49.154;8.254;2023-02-26T17:24:29;2.30;99.90
4934;DHT22;2482;49.154;8.254;2023-02-26T17:26:56;2.30;99.90
4934;DHT22;2482;49.154;8.254;2023-02-26T17:29:31;2.40;99.90
4934;DHT22;2482;49.154;8.254;2023-02-26T17:32:04;2.30;99.90
4934;DHT22;2482;49.154;8.254;2023-02-26T17:34:32;2.30;99.90
4934;DHT22;2482;49.154;8.254;2023-02-26T17:36:59;2.40;99.90
4934;DHT22;2482;49.154;8.254;2023-02-26T17:39:31;2.40;99.90
4934;DHT22;2482;49.154;8.254;2023-02-26T17:41:58;2.40;99.90
4934;DHT22;2482;49.154;8.254;2023-02-26T17:44:25;2.40;99.90
4934;DHT22;2482;49.154;8.254;2023-02-26T17:46:53;2.30;99.90
4934;DHT22;2482;49.154;8.254;2023-02-26T17:49:20;2.30;99.90
4934;DHT22;2482;49.154;8.254;2023-02-26T17:51:47;2.20;99.90
4934;DHT22;2482;49.154;8.254;2023-02-26T17:54:15;2.30;99.90
4934;DHT22;2482;49.154;8.254;2023-02-26T17:56:42;2.30;99.90
4934;DHT22;2482;49.154;8.254;2023-02-26T17:59:11;2.30;99.90
4934;DHT22;2482;49.154;8.254;2023-02-26T18:01:38;2.30;99.90
4934;DHT22;2482;49.154;8.254;2023-02-26T18:04:06;2.30;99.90
4934;DHT22;2482;49.154;8.254;2023-02-26T18:06:35;2.30;99.90
4934;DHT22;2482;49.154;8.254;2023-02-26T18:09:05;2.20;99.90
4934;DHT22;2482;49.154;8.254;2023-02-26T18:11:32;2.10;99.90
4934;DHT22;2482;49.154;8.254;2023-02-26T18:14:00;2.20;99.90
4934;DHT22;2482;49.154;8.254;2023-02-26T18:16:34;2.00;99.90
4934;DHT22;2482;49.154;8.254;2023-02-26T18:19:05;1.90;99.90
4934;DHT22;2482;49.154;8.254;2023-02-26T18:21:34;2.00;99.90
4934;DHT22;2482;49.154;8.254;2023-02-26T18:24:01;2.00;99.90
4934;DHT22;2482;49.154;8.254;2023-02-26T18:26:31;2.10;99.90
4934;DHT22;2482;49.154;8.254;2023-02-26T18:28:58;2.30;99.90
4934;DHT22;2482;49.154;8.254;2023-02-26T18:31:25;1.90;99.90
4934;DHT22;2482;49.154;8.254;2023-02-26T18:34:01;1.90;99.90
4934;DHT22;2482;49.154;8.254;2023-02-26T18:36:33;1.80;99.90
4934;DHT22;2482;49.154;8.254;2023-02-26T18:39:10;1.90;99.90
4934;DHT22;2482;49.154;8.254;2023-02-26T18:41:40;2.00;99.90
4934;DHT22;2482;49.154;8.254;2023-02-26T18:44:07;2.00;99.90
4934;DHT22;2482;49.154;8.254;2023-02-26T18:46:34;1.90;99.90
4934;DHT22;2482;49.154;8.254;2023-02-26T18:49:07;1.90;99.90
4934;DHT22;2482;49.154;8.254;2023-02-26T18:51:42;1.80;99.90
4934;DHT22;2482;49.154;8.254;2023-02-26T18:54:12;1.90;99.90
4934;DHT22;2482;49.154;8.254;2023-02-26T18:56:39;1.80;99.90
4934;DHT22;2482;49.154;8.254;2023-02-26T18:59:06;1.80;99.90
4934;DHT22;2482;49.154;8.254;2023-02-26T19:01:34;1.80;99.90
4934;DHT22;2482;49.154;8.254;2023-02-26T19:04:01;1.70;99.90
4934;DHT22;2482;49.154;8.254;2023-02-26T19:06:28;1.70;99.90
4934;DHT22;2482;49.154;8.254;2023-02-26T19:08:56;1.60;99.90
4934;DHT22;2482;49.154;8.254;2023-02-26T19:11:32;1.60;99.90
4934;DHT22;2482;49.154;8.254;2023-02-26T19:14:00;1.60;99.90
4934;DHT22;2482;49.154;8.254;2023-02-26T19:16:27;1.50;99.90
4934;DHT22;2482;49.154;8.254;2023-02-26T19:19:00;1.50;99.90
4934;DHT22;2482;49.154;8.254;2023-02-26T19:21:31;1.40;99.90
4934;DHT22;2482;49.154;8.254;2023-02-26T19:24:07;1.60;99.90
4934;DHT22;2482;49.154;8.254;2023-02-26T19:26:35;1.50;99.90
4934;DHT22;2482;49.154;8.254;2023-02-26T19:29:05;1.60;99.90
4934;DHT22;2482;49.154;8.254;2023-02-26T19:31:33;1.40;99.90
4934;DHT22;2482;49.154;8.254;2023-02-26T19:34:03;1.30;99.90
4934;DHT22;2482;49.154;8.254;2023-02-26T19:36:31;1.30;99.90
4934;DHT22;2482;49.154;8.254;2023-02-26T19:39:00;1.30;99.90
4934;DHT22;2482;49.154;8.254;2023-02-26T19:41:31;1.40;99.90
4934;DHT22;2482;49.154;8.254;2023-02-26T19:43:59;1.30;99.90
4934;DHT22;2482;49.154;8.254;2023-02-26T19:46:26;1.30;99.90
4934;DHT22;2482;49.154;8.254;2023-02-26T19:48:53;1.20;99.90
4934;DHT22;2482;49.154;8.254;2023-02-26T19:51:21;1.10;99.90
4934;DHT22;2482;49.154;8.254;2023-02-26T19:53:48;0.90;99.90
4934;DHT22;2482;49.154;8.254;2023-02-26T19:56:15;1.00;99.90
4934;DHT22;2482;49.154;8.254;2023-02-26T19:58:42;1.10;99.90
4934;DHT22;2482;49.154;8.254;2023-02-26T20:01:09;1.00;99.90